Time;durP1;ratioP1;P1;durP2;ratioP2;P2;SDS_P1;SDS_P2;PMS_P1;PMS_P2;Temp;Humidity;BMP_temperature;BMP_pressure;BME280_temperature;BME280_humidity;BME280_pressure;Samples;Min_cycle;Max_cycle;Signal;HPM_P1;HPM_P2
2021/12/04 00:02:17;;;;;;;17.90;8.90;;;;;;;-1.23;62.50;99373.34;103642;1312;137647;-65
2021/12/04 00:04:52;;;;;;;16.50;9.00;;;;;;;-1.24;62.96;99373.34;103671;1310;96475;-66
2021/12/04 00:07:24;;;;;;;20.80;9.60;;;;;;;-1.26;62.55;99376.05;103679;1309;137203;-66
2021/12/04 00:10:00;;;;;;;18.70;9.20;;;;;;;-1.31;62.68;99374.16;103701;1312;108913;-66
2021/12/04 00:12:33;;;;;;;17.70;9.50;;;;;;;-1.35;62.98;99370.58;103606;1309;138265;-66
2021/12/04 00:15:07;;;;;;;16.80;9.30;;;;;;;-1.37;62.94;99370.75;103735;1309;96515;-67
2021/12/04 00:17:40;;;;;;;21.50;9.40;;;;;;;-1.41;63.03;99367.17;103805;1313;96612;-66
2021/12/04 00:20:13;;;;;;;15.10;8.60;;;;;;;-1.43;63.20;99377.39;103584;1312;138154;-67
2021/12/04 00:22:46;;;;;;;16.00;9.10;;;;;;;-1.45;63.39;99374.98;103657;1315;108879;-66
2021/12/04 00:25:18;;;;;;;17.00;9.40;;;;;;;-1.46;63.34;99373.61;103619;1310;137647;-66
2021/12/04 00:27:50;;;;;;;21.40;9.90;;;;;;;-1.47;63.22;99375.15;103762;1309;96529;-67
2021/12/04 00:30:22;;;;;;;14.20;8.20;;;;;;;-1.46;63.05;99366.11;103624;1310;137949;-66
2021/12/04 00:32:58;;;;;;;21.30;8.80;;;;;;;-1.45;63.70;99371.06;103711;1313;110705;-67
2021/12/04 00:35:39;;;;;;;18.60;8.40;;;;;;;-1.42;63.60;99366.83;103706;1312;108948;-67
2021/12/04 00:49:33;;;;;;;17.20;8.60;;;;;;;-1.27;63.40;99355.06;103608;1312;137382;-66
2021/12/04 00:52:06;;;;;;;15.60;9.00;;;;;;;-1.25;63.21;99354.91;103671;1314;109313;-68
2021/12/04 00:54:38;;;;;;;17.00;9.40;;;;;;;-1.25;63.03;99352.18;103614;1312;137878;-68
2021/12/04 00:57:10;;;;;;;21.00;9.70;;;;;;;-1.25;63.40;99353.21;103776;1310;96462;-68
2021/12/04 00:59:43;;;;;;;18.10;9.40;;;;;;;-1.25;63.29;99350.48;103714;1310;110661;-66
2021/12/04 01:02:18;;;;;;;20.50;9.90;;;;;;;-1.28;62.99;99349.08;103612;1309;137386;-66
2021/12/04 01:04:51;;;;;;;20.30;9.80;;;;;;;-1.32;63.18;99340.90;103660;1310;109058;-65
2021/12/04 01:07:24;;;;;;;20.90;10.30;;;;;;;-1.34;63.06;99333.23;103759;1313;137450;-66
2021/12/04 01:09:57;;;;;;;20.60;10.60;;;;;;;-1.35;63.06;99336.82;103889;1311;96509;-66
2021/12/04 01:12:29;;;;;;;20.90;10.20;;;;;;;-1.36;63.13;99338.01;103806;1310;137563;-66
2021/12/04 01:15:02;;;;;;;23.80;10.80;;;;;;;-1.37;63.13;99335.27;103899;1310;108744;-66
2021/12/04 01:17:34;;;;;;;21.90;11.20;;;;;;;-1.36;62.88;99327.44;103997;1309;108816;-66
2021/12/04 01:20:08;;;;;;;18.30;9.90;;;;;;;-1.37;62.73;99322.15;103858;1309;138277;-66
2021/12/04 01:22:40;;;;;;;20.70;10.60;;;;;;;-1.38;62.76;99318.23;103935;1313;96443;-66
2021/12/04 01:25:12;;;;;;;20.90;10.60;;;;;;;-1.38;62.92;99303.05;103621;1313;138316;-67
2021/12/04 01:27:46;;;;;;;23.60;10.30;;;;;;;-1.38;62.99;99300.84;103846;1313;109085;-67
2021/12/04 01:30:18;;;;;;;20.00;10.40;;;;;;;-1.38;62.86;99300.67;103968;1310;138423;-68
2021/12/04 01:32:50;;;;;;;18.90;10.00;;;;;;;-1.37;62.96;99301.17;103830;1312;96500;-65
2021/12/04 01:35:22;;;;;;;19.20;10.80;;;;;;;-1.36;63.10;99297.42;103791;1310;96494;-65
2021/12/04 01:37:55;;;;;;;20.40;10.70;;;;;;;-1.33;63.01;99292.30;104114;1312;137413;-67
2021/12/04 01:40:27;;;;;;;20.30;10.50;;;;;;;-1.31;62.90;99291.95;103697;1311;108405;-66
2021/12/04 01:43:00;;;;;;;18.50;9.60;;;;;;;-1.30;62.76;99294.34;103510;1311;139107;-65
2021/12/04 01:45:32;;;;;;;20.20;11.20;;;;;;;-1.29;63.02;99288.38;103870;1308;96529;-65
2021/12/04 01:48:05;;;;;;;21.80;11.00;;;;;;;-1.28;62.91;99291.45;103653;1312;137649;-66
2021/12/04 01:50:37;;;;;;;20.80;11.20;;;;;;;-1.31;62.70;99284.29;103660;1311;111232;-65
2021/12/04 01:53:09;;;;;;;20.40;10.90;;;;;;;-1.32;63.07;99287.02;103543;1312;108987;-65
2021/12/04 01:55:42;;;;;;;22.00;11.30;;;;;;;-1.34;63.11;99295.04;103929;1312;138841;-67
2021/12/04 01:58:14;;;;;;;22.10;11.10;;;;;;;-1.36;62.73;99290.44;103598;1314;96520;-67
2021/12/04 02:00:47;;;;;;;21.70;11.90;;;;;;;-1.41;62.68;99296.06;103569;1313;137830;-67
2021/12/04 02:03:19;;;;;;;21.80;11.30;;;;;;;-1.45;62.69;99290.06;103605;1315;110440;-67
2021/12/04 02:05:52;;;;;;;21.70;10.70;;;;;;;-1.50;63.15;99292.30;103662;1311;108109;-67
2021/12/04 02:08:26;;;;;;;23.30;11.40;;;;;;;-1.56;63.04;99280.53;103724;1312;137857;-65
2021/12/04 02:11:01;;;;;;;22.80;11.80;;;;;;;-1.60;62.95;99278.48;103841;1310;96473;-64
2021/12/04 02:13:34;;;;;;;22.50;10.80;;;;;;;-1.64;63.62;99272.15;103725;1312;137911;-68
2021/12/04 02:16:16;;;;;;;25.60;11.60;;;;;;;-1.66;63.50;99275.21;103761;1312;110683;-67
2021/12/04 02:18:49;;;;;;;22.90;11.30;;;;;;;-1.70;63.74;99270.63;103626;1313;138899;-67
2021/12/04 02:21:21;;;;;;;24.00;11.70;;;;;;;-1.71;63.92;99268.07;103743;1313;109547;-67
2021/12/04 02:23:54;;;;;;;25.50;12.80;;;;;;;-1.71;63.52;99271.48;103854;1312;96481;-67
2021/12/04 02:26:27;;;;;;;26.20;12.40;;;;;;;-1.73;63.70;99266.54;103507;1316;137297;-66
2021/12/04 02:28:59;;;;;;;25.90;12.40;;;;;;;-1.75;63.84;99262.10;103659;1313;111195;-67
2021/12/04 02:31:31;;;;;;;24.30;12.60;;;;;;;-1.77;63.75;99263.80;103573;1312;138281;-66
2021/12/04 02:34:03;;;;;;;28.40;12.90;;;;;;;-1.81;64.11;99261.73;103635;1317;108155;-66
2021/12/04 02:36:36;;;;;;;23.20;12.30;;;;;;;-1.86;64.23;99261.56;103882;1311;137935;-66
2021/12/04 02:39:10;;;;;;;24.50;13.60;;;;;;;-1.89;64.04;99257.98;103813;1313;96648;-66
2021/12/04 02:41:42;;;;;;;26.50;13.30;;;;;;;-1.94;64.31;99255.93;103614;1316;111070;-66
2021/12/04 02:44:14;;;;;;;26.50;13.40;;;;;;;-1.99;64.56;99252.16;103489;1317;137945;-66
2021/12/04 02:46:46;;;;;;;25.80;12.30;;;;;;;-2.02;64.55;99252.83;103662;1312;108494;-66
2021/12/04 02:49:21;;;;;;;27.80;12.90;;;;;;;-2.07;64.82;99250.62;103538;1311;137816;-66
2021/12/04 02:51:53;;;;;;;28.50;13.70;;;;;;;-2.10;64.74;99246.35;103828;1314;96530;-65
2021/12/04 02:54:25;;;;;;;27.50;13.90;;;;;;;-2.12;65.19;99238.18;103834;1312;138387;-66
2021/12/04 02:56:59;;;;;;;25.90;13.00;;;;;;;-2.13;65.23;99236.14;103820;1313;109575;-66
2021/12/04 02:59:32;;;;;;;26.30;14.00;;;;;;;-2.12;65.32;99231.02;103551;1311;109178;-66
2021/12/04 03:02:06;;;;;;;30.70;14.70;;;;;;;-2.12;65.49;99235.96;104024;1313;137713;-66
2021/12/04 03:04:38;;;;;;;25.90;14.20;;;;;;;-2.14;65.46;99231.02;103840;1312;96606;-66
2021/12/04 03:07:11;;;;;;;29.70;14.70;;;;;;;-2.15;65.62;99233.40;104083;1314;137442;-66
2021/12/04 03:09:44;;;;;;;33.40;16.30;;;;;;;-2.20;65.92;99235.58;103646;1312;109429;-65
2021/12/04 03:12:18;;;;;;;30.20;15.80;;;;;;;-2.26;65.81;99229.45;103576;1313;139391;-66
2021/12/04 03:14:50;;;;;;;30.60;14.00;;;;;;;-2.30;65.96;99226.89;103811;1312;96539;-66
2021/12/04 03:17:25;;;;;;;31.70;16.00;;;;;;;-2.34;66.08;99227.53;104194;1313;96482;-65
2021/12/04 03:19:57;;;;;;;32.10;16.10;;;;;;;-2.36;66.56;99226.00;103622;1314;137573;-66
2021/12/04 03:22:30;;;;;;;30.50;15.00;;;;;;;-2.35;66.57;99228.72;103442;1314;109084;-65
2021/12/04 03:25:18;;;;;;;36.10;16.60;;;;;;;-2.32;66.59;99220.41;103705;1314;138319;-66
2021/12/04 03:27:52;;;;;;;31.80;16.40;;;;;;;-2.27;66.66;99219.40;103710;1309;96520;-65
2021/12/04 03:30:36;;;;;;;36.20;16.30;;;;;;;-2.23;66.71;99211.40;103715;1313;137540;-67
2021/12/04 03:41:36;;;;;;;42.00;19.60;;;;;;;-2.26;66.32;99201.35;103631;1316;96696;-67
2021/12/04 03:44:08;;;;;;;36.70;18.40;;;;;;;-2.27;67.04;99199.83;103664;1312;137449;-66
2021/12/04 03:46:44;;;;;;;38.80;18.30;;;;;;;-2.28;67.03;99198.29;103686;1313;111401;-66
2021/12/04 03:49:16;;;;;;;35.30;16.80;;;;;;;-2.29;67.14;99186.02;103615;1312;138278;-65
2021/12/04 03:51:48;;;;;;;34.10;17.20;;;;;;;-2.28;67.12;99179.73;103596;1312;108821;-65
2021/12/04 03:54:20;;;;;;;36.00;18.40;;;;;;;-2.25;67.27;99178.54;103753;1312;96571;-68
2021/12/04 03:57:02;;;;;;;37.60;18.50;;;;;;;-2.22;67.41;99176.84;103641;1316;138359;-67
2021/12/04 03:59:36;;;;;;;39.60;19.00;;;;;;;-2.22;67.40;99172.41;103803;1313;109155;-66
2021/12/04 04:02:11;;;;;;;34.70;18.20;;;;;;;-2.21;67.19;99171.73;103642;1316;138046;-66
2021/12/04 04:04:43;;;;;;;39.70;19.90;;;;;;;-2.21;67.16;99173.09;103727;1310;109093;-66
2021/12/04 04:07:15;;;;;;;37.90;20.00;;;;;;;-2.23;67.74;99170.20;103636;1312;137690;-66
2021/12/04 04:09:48;;;;;;;37.00;19.30;;;;;;;-2.25;67.61;99169.00;103754;1316;96505;-67
2021/12/04 04:12:20;;;;;;;40.20;20.00;;;;;;;-2.27;67.42;99167.98;103717;1313;110137;-66
2021/12/04 04:14:52;;;;;;;36.20;17.50;;;;;;;-2.28;67.60;99164.23;103591;1313;138696;-66
2021/12/04 04:17:26;;;;;;;32.20;16.20;;;;;;;-2.28;67.87;99162.02;103648;1313;109179;-66
2021/12/04 04:19:58;;;;;;;33.90;18.40;;;;;;;-2.26;67.53;99167.30;103582;1316;137941;-66
2021/12/04 04:22:31;;;;;;;36.60;17.70;;;;;;;-2.23;67.55;99170.38;103752;1316;96504;-66
2021/12/04 04:25:03;;;;;;;37.30;18.30;;;;;;;-2.21;67.60;99162.36;103686;1316;138313;-68
2021/12/04 04:27:36;;;;;;;36.10;17.70;;;;;;;-2.21;67.66;99159.98;103749;1316;108888;-64
2021/12/04 04:30:13;;;;;;;37.50;17.80;;;;;;;-2.23;67.70;99154.36;103726;1314;108179;-66
2021/12/04 04:32:47;;;;;;;34.20;18.30;;;;;;;-2.26;67.96;99149.42;103735;1313;137371;-67
2021/12/04 04:35:21;;;;;;;40.60;19.40;;;;;;;-2.28;68.02;99148.40;103752;1316;96494;-66
2021/12/04 04:38:02;;;;;;;36.90;18.10;;;;;;;-2.30;67.95;99149.25;103574;1314;137426;-66
2021/12/04 04:57:44;;;;;;;36.40;17.90;;;;;;;-2.19;68.02;99124.05;103206;1316;108810;-65
2021/12/04 05:00:45;;;;;;;33.70;18.20;;;;;;;-2.21;68.09;99119.28;103276;1315;96477;-66
2021/12/04 05:11:57;;;;;;;33.10;17.00;;;;;;;-2.13;68.42;99127.99;102986;1322;109019;-65
2021/12/04 05:14:29;;;;;;;34.20;17.40;;;;;;;-2.09;68.14;99123.56;103337;1322;138253;-65
2021/12/04 05:17:05;;;;;;;33.40;17.20;;;;;;;-2.05;68.07;99112.66;103103;1324;96634;-66
2021/12/04 05:19:42;;;;;;;37.50;18.50;;;;;;;-2.03;68.31;99112.66;103096;1318;137799;-66
2021/12/04 05:22:13;;;;;;;;;;;;;;;-2.02;68.45;99109.25;103166;1318;108921;-65
2021/12/04 05:24:46;;;;;;;34.30;17.30;;;;;;;-2.01;68.33;99111.13;103169;1319;108855;-66
2021/12/04 05:27:19;;;;;;;31.70;17.30;;;;;;;-2.02;68.33;99109.92;103001;1318;137506;-65
2021/12/04 05:29:51;;;;;;;30.90;16.40;;;;;;;-2.02;68.45;99109.93;103049;1318;96538;-66
2021/12/04 05:32:23;;;;;;;30.30;15.40;;;;;;;-2.02;68.31;99111.12;103076;1318;137770;-67
2021/12/04 05:34:55;;;;;;;32.40;15.40;;;;;;;-1.99;68.52;99104.65;103196;1322;108321;-66
2021/12/04 05:37:27;;;;;;;32.80;15.50;;;;;;;-1.94;68.28;99105.52;103032;1318;139887;-67
2021/12/04 05:39:59;;;;;;;30.90;15.10;;;;;;;-1.90;68.50;99102.77;103108;1318;96548;-66
2021/12/04 05:42:31;;;;;;;29.60;15.70;;;;;;;-1.87;68.22;99099.35;103122;1317;96651;-66
2021/12/04 05:45:08;;;;;;;27.00;14.90;;;;;;;-1.85;68.11;99099.19;103204;1319;140352;-66
2021/12/04 05:47:45;;;;;;;28.60;15.30;;;;;;;-1.85;68.42;99094.08;103982;1312;107883;-65
2021/12/04 05:50:34;;;;;;;26.60;15.20;;;;;;;-1.86;68.25;99090.67;103644;1317;137625;-66
2021/12/04 05:53:17;;;;;;;30.60;15.10;;;;;;;-1.87;67.97;99085.05;103786;1316;96609;-64
2021/12/04 05:55:53;;;;;;;28.70;14.50;;;;;;;-1.88;67.94;99081.82;104118;1313;137435;-66
2021/12/04 05:58:28;;;;;;;28.70;13.70;;;;;;;-1.87;68.26;99084.38;104718;1314;109705;-66
2021/12/04 06:01:04;;;;;;;34.00;13.80;;;;;;;-1.85;68.28;99079.27;104400;1306;138813;-64
2021/12/04 06:03:36;;;;;;;27.30;13.80;;;;;;;-1.79;68.27;99080.45;103561;1316;108911;-65
2021/12/04 06:06:09;;;;;;;24.70;12.40;;;;;;;-1.75;67.99;99080.96;103680;1316;96919;-66
2021/12/04 06:08:41;;;;;;;23.00;13.20;;;;;;;-1.71;68.03;99076.86;103593;1318;138264;-66
2021/12/04 06:11:14;;;;;;;27.10;13.50;;;;;;;-1.67;67.67;99070.88;103444;1315;111455;-66
2021/12/04 06:13:47;;;;;;;27.90;13.80;;;;;;;-1.65;67.72;99076.66;103543;1310;137685;-65
2021/12/04 06:16:20;;;;;;;24.60;13.80;;;;;;;-1.65;67.80;99078.55;103693;1313;108926;-65
2021/12/04 06:18:53;;;;;;;26.50;12.70;;;;;;;-1.63;67.54;99077.86;103639;1316;96602;-65
2021/12/04 06:24:15;;;;;;;25.80;14.30;;;;;;;-1.63;67.76;99084.34;103727;1317;111031;-66
2021/12/04 06:26:47;;;;;;;25.20;13.30;;;;;;;-1.62;67.58;99086.38;103534;1312;137720;-66
2021/12/04 06:29:21;;;;;;;20.70;11.00;;;;;;;-1.61;67.49;99089.13;103682;1317;108873;-66
2021/12/04 06:31:54;;;;;;;25.80;11.40;;;;;;;-1.57;67.78;99090.81;103718;1315;139543;-66
2021/12/04 06:34:27;;;;;;;23.10;11.70;;;;;;;-1.51;67.58;99095.40;103876;1312;96616;-66
2021/12/04 06:36:59;;;;;;;18.10;10.70;;;;;;;-1.44;67.18;99099.30;104026;1313;111557;-67
2021/12/04 06:39:32;;;;;;;22.10;10.60;;;;;;;-1.39;67.21;99097.08;103801;1313;137504;-66
2021/12/04 06:42:06;;;;;;;25.70;12.60;;;;;;;-1.35;67.15;99100.14;103683;1315;108808;-66
2021/12/04 06:44:38;;;;;;;24.70;11.60;;;;;;;-1.31;66.98;99104.73;103580;1313;138183;-66
2021/12/04 06:47:10;;;;;;;26.20;12.20;;;;;;;-1.27;66.98;99101.98;103747;1312;96504;-66
2021/12/04 06:49:43;;;;;;;25.30;12.10;;;;;;;-1.25;66.76;99100.98;103688;1315;137575;-66
2021/12/04 06:52:22;;;;;;;21.10;10.50;;;;;;;-1.24;66.67;99100.28;103717;1313;108249;-65
2021/12/04 06:54:56;;;;;;;20.30;11.20;;;;;;;-1.23;66.50;99100.45;103739;1316;107416;-66
2021/12/04 06:57:31;;;;;;;18.50;11.30;;;;;;;-1.21;66.75;99099.94;103567;1312;137792;-66
2021/12/04 07:00:04;;;;;;;19.30;10.20;;;;;;;-1.20;66.48;99099.76;103732;1316;96478;-66
2021/12/04 07:02:36;;;;;;;22.50;10.90;;;;;;;-1.18;66.86;99098.05;103741;1316;138540;-65
2021/12/04 07:05:10;;;;;;;18.10;10.40;;;;;;;-1.13;66.61;99097.84;103754;1315;107960;-66
2021/12/04 07:07:42;;;;;;;19.30;9.60;;;;;;;-1.05;66.46;99102.95;103664;1316;138547;-66
2021/12/04 07:10:15;;;;;;;26.20;11.10;;;;;;;-0.97;66.42;99099.48;103674;1313;96507;-65
2021/12/04 07:12:48;;;;;;;18.70;9.60;;;;;;;-0.92;66.35;99098.60;103800;1316;96614;-66
2021/12/04 07:15:20;;;;;;;21.00;10.40;;;;;;;-0.88;66.26;99097.41;103562;1312;137453;-65
2021/12/04 07:17:53;;;;;;;20.60;10.50;;;;;;;-0.83;65.94;99099.09;103644;1313;108623;-66
2021/12/04 07:20:25;;;;;;;21.10;11.00;;;;;;;-0.80;65.99;99092.25;103544;1318;138476;-66
2021/12/04 07:22:59;;;;;;;18.90;10.30;;;;;;;-0.79;65.77;99085.41;103725;1312;96619;-66
2021/12/04 07:25:32;;;;;;;18.40;9.90;;;;;;;-0.75;65.83;99089.48;103729;1310;138945;-65
2021/12/04 07:28:04;;;;;;;16.00;9.20;;;;;;;-0.73;65.37;99091.01;103688;1313;111443;-67
2021/12/04 07:30:36;;;;;;;17.60;10.20;;;;;;;-0.70;65.76;99096.65;103897;1315;109020;-67
2021/12/04 07:33:09;;;;;;;19.40;10.10;;;;;;;-0.67;65.39;99094.23;103614;1316;137834;-66
2021/12/04 07:35:41;;;;;;;16.20;9.20;;;;;;;-0.63;65.66;99095.23;103760;1315;96708;-65
2021/12/04 07:38:15;;;;;;;20.50;9.70;;;;;;;-0.59;65.16;99094.52;103653;1317;137333;-66
2021/12/04 07:40:47;;;;;;;21.00;10.40;;;;;;;-0.56;65.28;99092.80;103649;1315;235050;-67
2021/12/04 07:43:20;;;;;;;19.80;9.70;;;;;;;-0.55;65.07;99093.30;103605;1316;138751;-68
2021/12/04 07:45:53;;;;;;;18.60;10.80;;;;;;;-0.52;65.36;99089.55;103660;1312;109388;-66
2021/12/04 07:48:26;;;;;;;17.50;9.40;;;;;;;-0.49;65.26;99091.91;103631;1316;96497;-68
2021/12/04 07:51:01;;;;;;;20.10;10.40;;;;;;;-0.47;64.75;99090.52;103602;1317;137228;-67
2021/12/04 07:53:34;;;;;;;15.80;9.50;;;;;;;-0.43;65.04;99091.17;103754;1314;111144;-66
2021/12/04 07:56:07;;;;;;;17.80;9.80;;;;;;;-0.40;64.96;99090.81;103674;1315;137755;-66
2021/12/04 07:58:42;;;;;;;18.80;9.30;;;;;;;-0.35;64.51;99087.03;103737;1315;109814;-66
2021/12/04 08:01:15;;;;;;;17.40;9.90;;;;;;;-0.33;64.62;99083.79;103525;1316;138269;-68
2021/12/04 08:03:47;;;;;;;16.40;9.70;;;;;;;-0.28;64.18;99090.41;103790;1312;96517;-67
2021/12/04 08:06:20;;;;;;;20.50;10.10;;;;;;;-0.26;64.34;99082.52;103716;1315;111100;-66
2021/12/04 08:08:53;;;;;;;16.70;9.00;;;;;;;-0.22;63.99;99085.56;103581;1316;137611;-66
2021/12/04 08:11:26;;;;;;;16.20;8.80;;;;;;;-0.20;63.96;99088.45;103749;1316;108757;-67
2021/12/04 08:13:58;;;;;;;14.50;9.10;;;;;;;-0.18;63.97;99086.23;103530;1312;137401;-67
2021/12/04 08:16:32;;;;;;;19.90;9.80;;;;;;;-0.16;63.97;99087.77;103674;1312;96383;-66
2021/12/04 08:19:05;;;;;;;18.90;10.20;;;;;;;-0.16;63.83;99081.61;103903;1312;111020;-66
2021/12/04 08:21:38;;;;;;;18.70;10.70;;;;;;;-0.15;64.05;99082.63;103704;1315;137592;-66
2021/12/04 08:24:10;;;;;;;17.90;9.60;;;;;;;-0.14;63.83;99081.42;103694;1316;108906;-67
2021/12/04 08:26:44;;;;;;;18.90;10.10;;;;;;;-0.12;63.96;99081.23;103566;1309;139101;-67
2021/12/04 08:29:17;;;;;;;17.80;9.50;;;;;;;-0.10;63.72;99077.80;103678;1316;96390;-67
2021/12/04 08:31:50;;;;;;;17.40;9.20;;;;;;;-0.07;63.88;99077.25;103630;1315;137547;-67
2021/12/04 08:34:24;;;;;;;15.90;9.20;;;;;;;-0.01;64.12;99074.81;103734;1317;108859;-66
2021/12/04 08:36:57;;;;;;;20.30;9.30;;;;;;;0.04;63.76;99079.40;103806;1312;108051;-67
2021/12/04 08:39:29;;;;;;;18.60;9.60;;;;;;;0.07;63.80;99069.80;103579;1316;139364;-66
2021/12/04 08:42:02;;;;;;;17.70;9.60;;;;;;;0.13;63.54;99068.89;103731;1316;96384;-66
2021/12/04 08:44:36;;;;;;;21.10;10.40;;;;;;;0.16;63.17;99069.53;103634;1310;137517;-66
2021/12/04 08:47:08;;;;;;;25.10;11.00;;;;;;;0.17;63.40;99058.05;103614;1313;109122;-67
2021/12/04 08:49:43;;;;;;;18.60;11.10;;;;;;;0.20;63.33;99062.68;103636;1316;137789;-67
2021/12/04 08:52:18;;;;;;;20.80;11.10;;;;;;;0.22;62.84;99064.71;103623;1317;97628;-67
2021/12/04 08:54:50;;;;;;;28.00;12.10;;;;;;;0.25;63.16;99053.90;103508;1314;96621;-67
2021/12/04 08:57:22;;;;;;;20.50;11.90;;;;;;;0.29;63.06;99058.13;103468;1316;137383;-66
2021/12/04 08:59:55;;;;;;;30.00;10.70;;;;;;;0.34;63.17;99059.27;103534;1310;109015;-65
2021/12/04 09:02:27;;;;;;;19.60;10.90;;;;;;;0.39;62.76;99055.13;103423;1313;137410;-67
2021/12/04 09:05:00;;;;;;;18.30;10.40;;;;;;;0.44;62.95;99053.54;103585;1312;96535;-68
2021/12/04 09:07:32;;;;;;;22.40;10.40;;;;;;;0.52;62.76;99052.75;103580;1317;138821;-67
2021/12/04 09:10:06;;;;;;;17.90;9.30;;;;;;;0.58;62.35;99059.38;103641;1312;110837;-67
2021/12/04 09:12:39;;;;;;;15.50;9.00;;;;;;;0.63;62.55;99056.24;104802;1312;107997;-65
2021/12/04 09:15:15;;;;;;;17.70;10.30;;;;;;;0.65;61.71;99054.50;103493;1315;137346;-67
2021/12/04 09:17:47;;;;;;;15.90;9.10;;;;;;;0.68;62.02;99053.44;104075;1313;96513;-67
2021/12/04 09:20:20;;;;;;;15.70;9.60;;;;;;;0.70;61.99;99048.63;103433;1312;137080;-66
2021/12/04 09:22:53;;;;;;;17.40;10.00;;;;;;;0.70;61.78;99046.22;103819;1313;110269;-66
2021/12/04 09:25:27;;;;;;;16.10;9.70;;;;;;;0.72;61.82;99041.94;103469;1313;137579;-67
2021/12/04 09:28:08;;;;;;;18.70;10.20;;;;;;;0.73;61.68;99038.52;104881;1312;108837;-67
2021/12/04 09:33:59;;;;;;;23.90;10.10;;;;;;;0.78;61.57;99031.95;104671;1312;136960;-66
2021/12/04 09:59:42;;;;;;;13.30;8.60;;;;;;;0.85;61.53;99024.31;103231;1316;96658;-66
2021/12/04 10:02:23;;;;;;;15.20;8.90;;;;;;;0.87;61.58;99027.38;103419;1314;137187;-66
2021/12/04 10:05:16;;;;;;;16.60;9.00;;;;;;;0.87;61.71;99028.73;103244;1316;111236;-66
2021/12/04 10:13:52;;;;;;;16.60;9.30;;;;;;;0.99;61.26;99018.16;103091;1315;137941;-66
2021/12/04 10:19:33;;;;;;;20.10;9.10;;;;;;;1.03;61.41;99014.51;102902;1317;136196;-67
2021/12/04 10:22:20;;;;;;;16.20;8.90;;;;;;;1.08;60.99;99013.59;103173;1315;107460;-66
2021/12/04 10:32:01;;;;;;;16.30;9.80;;;;;;;1.11;61.18;99010.98;103081;1316;108525;-66
2021/12/04 10:33:55;;;;;;;14.80;9.40;;;;;;;1.34;60.59;98998.84;103214;1313;137169;-66
2021/12/04 10:36:32;;;;;;;17.00;9.80;;;;;;;1.39;60.41;98996.70;103227;1316;109878;-67
2021/12/04 10:39:06;;;;;;;15.60;8.90;;;;;;;1.47;60.51;98993.85;103601;1317;137882;-65
2021/12/04 10:41:42;;;;;;;17.50;9.30;;;;;;;1.51;60.03;98992.58;103579;1315;97013;-68
2021/12/04 10:44:15;;;;;;;;;;;;;;;1.55;59.89;98987.71;103261;1317;137483;-68
2021/12/04 10:47:02;;;;;;;18.50;9.90;;;;;;;1.58;59.66;98990.06;103887;1316;111270;-66
2021/12/04 10:49:46;;;;;;;15.60;8.90;;;;;;;1.58;59.78;98983.20;104570;1316;109273;-66
2021/12/04 10:52:35;;;;;;;18.80;9.50;;;;;;;1.60;59.56;98979.40;104453;1317;137816;-67
2021/12/04 10:55:17;;;;;;;14.10;9.60;;;;;;;1.59;59.55;98970.34;104556;1314;94695;-66
2021/12/04 11:00:57;;;;;;;19.20;9.40;;;;;;;1.60;59.34;98969.80;104923;1308;109650;-66
2021/12/04 11:26:33;;;;;;;18.30;9.80;;;;;;;1.74;59.05;98960.67;103672;1319;137481;-67
2021/12/04 11:35:28;;;;;;;16.90;10.90;;;;;;;1.86;59.11;98964.94;103947;1313;108959;-67
2021/12/04 11:38:08;;;;;;;19.30;11.00;;;;;;;1.88;58.92;98961.29;103226;1316;96578;-67
2021/12/04 11:44:05;;;;;;;21.70;11.00;;;;;;;1.94;58.93;98957.41;101100;1351;635773;-66
2021/12/04 11:46:46;;;;;;;18.50;10.40;;;;;;;1.93;59.02;98964.27;103706;1325;137034;-68
2021/12/04 11:49:21;;;;;;;20.30;11.20;;;;;;;1.95;59.01;98966.98;103757;1325;92961;-67
2021/12/04 11:51:57;;;;;;;24.70;12.70;;;;;;;1.96;58.91;98959.60;103444;1322;136622;-67
2021/12/04 11:54:32;;;;;;;18.70;11.40;;;;;;;1.95;58.69;98957.55;102825;1328;108885;-67
2021/12/04 11:57:08;;;;;;;18.00;12.00;;;;;;;1.94;58.85;98956.02;102522;1322;138102;-67
2021/12/04 11:59:42;;;;;;;18.80;11.00;;;;;;;1.92;58.87;98961.04;102881;1322;94592;-67
2021/12/04 12:02:22;;;;;;;23.30;12.40;;;;;;;1.90;58.75;98959.02;102811;1323;94466;-66
2021/12/04 12:04:57;;;;;;;23.40;11.70;;;;;;;1.89;59.07;98958.54;103133;1323;136659;-67
2021/12/04 12:07:32;;;;;;;25.40;11.90;;;;;;;1.88;59.16;98957.87;102903;1323;108854;-67
2021/12/04 12:10:09;;;;;;;49.80;14.20;;;;;;;1.85;59.17;98953.48;102676;1322;137057;-66
2021/12/04 12:12:44;;;;;;;28.30;12.10;;;;;;;1.83;59.22;98952.46;102952;1323;95210;-67
2021/12/04 12:15:28;;;;;;;19.10;11.10;;;;;;;1.80;59.25;98949.79;102813;1323;137290;-66
2021/12/04 12:18:12;;;;;;;21.20;10.70;;;;;;;1.78;59.35;98949.95;102980;1322;109815;-67
2021/12/04 12:20:50;;;;;;;19.50;11.90;;;;;;;1.75;59.42;98950.53;104062;1322;138310;-66
2021/12/04 12:23:25;;;;;;;19.20;11.50;;;;;;;1.75;59.48;98953.10;102804;1323;108897;-68
2021/12/04 12:26:14;;;;;;;19.20;11.10;;;;;;;1.76;59.68;98956.16;102888;1322;95156;-67
2021/12/04 12:31:53;;;;;;;20.30;11.10;;;;;;;1.79;59.57;98950.81;104163;1322;109866;-67
2021/12/04 12:37:21;;;;;;;24.80;11.90;;;;;;;1.85;59.74;98949.52;104233;1319;109910;-67
2021/12/04 12:39:57;;;;;;;21.60;12.20;;;;;;;1.85;59.81;98948.33;103206;1318;137112;-67
2021/12/04 12:42:35;;;;;;;22.60;11.50;;;;;;;1.88;59.78;98945.02;103495;1319;95881;-65
2021/12/04 12:45:23;;;;;;;21.30;12.00;;;;;;;1.87;59.68;98944.00;102971;1319;137036;-66
2021/12/04 12:48:04;;;;;;;21.00;12.50;;;;;;;1.86;59.60;98940.23;104336;1319;109182;-65
2021/12/04 12:50:38;;;;;;;25.10;12.40;;;;;;;1.86;59.81;98939.40;104354;1319;137960;-68
2021/12/04 12:53:13;;;;;;;24.00;12.90;;;;;;;1.85;59.85;98940.79;103107;1326;93555;-67
2021/12/04 12:55:48;;;;;;;18.90;12.10;;;;;;;1.86;59.81;98941.64;104342;1319;93877;-66
2021/12/04 12:58:31;;;;;;;20.50;12.00;;;;;;;1.87;59.66;98948.98;103210;1320;137043;-65
2021/12/04 13:12:52;;;;;;;24.20;13.30;;;;;;;1.71;59.97;98944.80;103026;1319;109922;-66
2021/12/04 13:15:35;;;;;;;26.20;12.20;;;;;;;1.65;59.61;98942.33;103188;1318;137524;-65
2021/12/04 13:18:20;;;;;;;21.40;12.50;;;;;;;1.58;59.79;98941.92;104352;1319;108825;-67
2021/12/04 13:20:59;;;;;;;23.40;12.00;;;;;;;1.52;59.95;98937.05;103279;1319;138446;-68
2021/12/04 13:23:32;;;;;;;23.90;12.30;;;;;;;1.50;59.97;98938.80;104313;1319;93216;-67
2021/12/04 13:26:07;;;;;;;25.50;14.20;;;;;;;1.47;60.00;98934.58;104368;1318;110033;-67
2021/12/04 13:28:42;;;;;;;21.00;12.50;;;;;;;1.46;60.10;98938.19;104345;1322;137881;-68
2021/12/04 13:31:20;;;;;;;22.40;12.80;;;;;;;1.44;60.16;98939.60;104416;1319;108610;-67
2021/12/04 13:33:54;;;;;;;21.70;12.90;;;;;;;1.43;60.18;98933.09;104333;1318;137071;-67
2021/12/04 13:36:30;;;;;;;19.10;12.40;;;;;;;1.43;60.22;98938.73;103773;1319;93491;-67
2021/12/04 13:39:06;;;;;;;24.30;12.30;;;;;;;1.41;60.26;98939.80;103078;1319;137412;-67
2021/12/04 13:41:41;;;;;;;27.10;13.40;;;;;;;1.39;60.31;98938.12;103200;1319;109130;-68
2021/12/04 13:44:16;;;;;;;22.80;13.10;;;;;;;1.40;60.58;98941.19;103480;1319;108814;-66
2021/12/04 13:46:51;;;;;;;18.70;11.50;;;;;;;1.38;60.77;98942.08;102997;1318;136984;-67
2021/12/04 13:49:31;;;;;;;20.30;11.90;;;;;;;1.35;60.92;98940.08;103862;1319;95227;-66
2021/12/04 13:52:10;;;;;;;20.20;11.50;;;;;;;1.33;61.28;98941.66;102980;1319;136884;-67
2021/12/04 13:54:47;;;;;;;24.70;12.40;;;;;;;1.31;61.60;98944.60;103928;1319;109082;-65
2021/12/04 13:57:17;;;;;;;;;;;;;;;1.27;61.98;98944.16;103313;1319;137566;-66
2021/12/04 13:59:50;;;;;;;22.40;12.00;;;;;;;1.24;62.30;98944.35;103106;1320;95282;-66
2021/12/04 14:02:26;;;;;;;18.70;11.60;;;;;;;1.19;62.59;98940.14;103061;1319;95226;-65
2021/12/04 14:05:05;;;;;;;22.50;12.40;;;;;;;1.18;62.89;98942.91;103440;1322;138635;-65
2021/12/04 14:07:37;;;;;;;22.30;13.00;;;;;;;1.14;63.53;98947.23;104443;1317;108982;-66